createdAt,value
2023-05-08T00:00:21.497Z,3.00
2023-05-08T00:03:43.484Z,3.70
2023-05-08T00:06:45.971Z,2.80
2023-05-08T00:12:49.330Z,3.20
2023-05-08T00:15:51.037Z,2.50
2023-05-08T00:18:53.599Z,2.00
2023-05-08T00:21:55.321Z,2.50
2023-05-08T00:24:56.988Z,2.60
2023-05-08T00:27:59.912Z,2.10
2023-05-08T00:31:02.009Z,2.20
2023-05-08T00:34:03.834Z,2.20
2023-05-08T00:37:05.618Z,2.10
2023-05-08T00:40:09.321Z,2.40
2023-05-08T00:43:11.080Z,2.00
2023-05-08T00:46:13.105Z,2.00
2023-05-08T00:49:15.625Z,2.10
2023-05-08T00:52:18.724Z,2.10
2023-05-08T00:55:20.684Z,2.50
2023-05-08T00:58:25.268Z,2.10
2023-05-08T01:01:27.036Z,2.20
2023-05-08T01:04:30.016Z,2.60
2023-05-08T01:07:32.191Z,2.90
2023-05-08T01:10:45.992Z,2.60
2023-05-08T01:13:50.836Z,2.30
2023-05-08T01:17:14.083Z,2.60
2023-05-08T01:20:31.566Z,2.20
2023-05-08T01:24:10.560Z,2.30
2023-05-08T01:27:33.851Z,2.40
2023-05-08T01:30:41.595Z,2.70
2023-05-08T01:33:56.729Z,2.90
2023-05-08T01:37:06.125Z,3.20
2023-05-08T01:40:17.531Z,3.60
2023-05-08T01:43:25.224Z,3.90
2023-05-08T01:46:31.663Z,3.90
2023-05-08T01:49:39.508Z,3.80
2023-05-08T01:52:48.469Z,4.10
2023-05-08T01:55:54.018Z,4.00
2023-05-08T01:58:58.553Z,3.50
2023-05-08T02:02:02.161Z,3.90
2023-05-08T02:05:06.206Z,3.30
2023-05-08T02:08:10.667Z,3.80
2023-05-08T02:11:14.381Z,3.50
2023-05-08T02:14:19.017Z,3.30
2023-05-08T02:17:24.058Z,3.30
2023-05-08T02:20:27.228Z,3.10
2023-05-08T02:23:30.674Z,2.70
2023-05-08T02:26:34.392Z,3.20
2023-05-08T02:29:37.180Z,2.60
2023-05-08T02:32:41.933Z,2.90
2023-05-08T02:35:45.642Z,2.70
2023-05-08T02:38:52.194Z,2.50
2023-05-08T02:41:54.078Z,2.60
2023-05-08T02:48:11.579Z,2.30
2023-05-08T02:51:13.260Z,2.30
2023-05-08T02:54:28.667Z,2.40
2023-05-08T02:57:46.222Z,2.50
2023-05-08T03:01:05.866Z,2.60
2023-05-08T03:04:10.296Z,2.40
2023-05-08T03:07:12.443Z,3.50
2023-05-08T03:10:16.080Z,2.50
2023-05-08T03:13:20.200Z,2.60
2023-05-08T03:16:25.002Z,2.40
2023-05-08T03:19:32.977Z,2.50
2023-05-08T03:22:38.053Z,2.30
2023-05-08T03:25:41.410Z,2.30
2023-05-08T03:28:43.992Z,2.60
2023-05-08T03:31:46.716Z,2.50
2023-05-08T03:34:50.207Z,2.40
2023-05-08T03:37:53.117Z,2.30
2023-05-08T03:40:55.044Z,2.50
2023-05-08T03:43:58.102Z,2.40
2023-05-08T03:47:01.877Z,2.40
2023-05-08T03:50:04.502Z,2.00
2023-05-08T03:53:07.465Z,2.40
2023-05-08T03:56:09.471Z,2.30
2023-05-08T03:59:21.676Z,2.70
2023-05-08T04:02:42.144Z,2.70
2023-05-08T04:05:57.154Z,2.50
2023-05-08T04:09:07.893Z,2.80
2023-05-08T04:12:21.269Z,2.70
2023-05-08T04:15:29.309Z,2.60
2023-05-08T04:18:36.056Z,2.70
2023-05-08T04:21:42.358Z,2.70
2023-05-08T04:24:48.583Z,2.50
2023-05-08T04:27:52.565Z,2.30
2023-05-08T04:30:56.378Z,2.60
2023-05-08T04:33:58.618Z,2.60
2023-05-08T04:37:00.476Z,2.90
2023-05-08T04:40:04.338Z,2.80
2023-05-08T04:43:06.618Z,2.60
2023-05-08T04:46:08.568Z,2.80
2023-05-08T04:49:11.297Z,2.80
2023-05-08T04:52:13.052Z,2.50
2023-05-08T04:55:15.145Z,2.80
2023-05-08T04:58:17.048Z,2.70
2023-05-08T05:01:18.841Z,3.10
2023-05-08T05:04:21.627Z,3.10
2023-05-08T05:07:23.619Z,2.60
2023-05-08T05:10:25.459Z,2.80
2023-05-08T05:13:27.555Z,2.70
2023-05-08T05:16:29.855Z,2.90
2023-05-08T05:19:31.867Z,2.80
2023-05-08T05:22:34.153Z,2.50
2023-05-08T05:25:36.058Z,2.80
2023-05-08T05:28:37.839Z,2.70
2023-05-08T05:31:40.866Z,2.50
2023-05-08T05:37:44.729Z,2.40
2023-05-08T05:40:46.778Z,2.30
2023-05-08T05:43:48.638Z,2.70
2023-05-08T05:46:50.492Z,2.70
2023-05-08T05:49:52.339Z,3.10
2023-05-08T05:52:54.562Z,2.60
2023-05-08T05:55:56.384Z,2.40
2023-05-08T05:58:58.124Z,2.50
2023-05-08T06:02:00.786Z,2.50
2023-05-08T06:05:04.263Z,2.40
2023-05-08T06:08:07.862Z,2.50
2023-05-08T06:11:09.588Z,2.60
2023-05-08T06:14:11.317Z,3.10
2023-05-08T06:17:13.627Z,2.70
2023-05-08T06:20:15.694Z,2.90
2023-05-08T06:23:17.405Z,2.60
2023-05-08T06:26:20.137Z,2.60
2023-05-08T06:29:22.679Z,2.80
2023-05-08T06:32:24.465Z,3.20
2023-05-08T06:35:26.272Z,3.10
2023-05-08T06:38:28.021Z,3.10
2023-05-08T06:41:29.802Z,3.00
2023-05-08T06:44:32.402Z,3.40
2023-05-08T06:47:34.099Z,3.00
2023-05-08T06:50:40.129Z,2.10
2023-05-08T06:53:42.187Z,3.20
2023-05-08T06:59:45.966Z,2.60
2023-05-08T07:02:47.803Z,3.30
2023-05-08T07:05:49.537Z,3.50
2023-05-08T07:08:51.186Z,3.70
2023-05-08T07:11:53.092Z,4.10
2023-05-08T07:14:55.888Z,3.30
2023-05-08T07:17:59.274Z,3.30
2023-05-08T07:21:00.964Z,3.10
2023-05-08T07:24:02.697Z,3.10
2023-05-08T07:27:04.425Z,3.30
2023-05-08T07:30:09.440Z,3.00
2023-05-08T07:33:14.138Z,3.00
2023-05-08T07:36:16.243Z,3.00
2023-05-08T07:39:19.368Z,2.90
2023-05-08T07:42:21.927Z,3.40
2023-05-08T07:45:23.757Z,2.90
2023-05-08T07:48:25.677Z,2.80
2023-05-08T07:51:27.472Z,2.70
2023-05-08T07:54:29.185Z,2.90
2023-05-08T07:57:38.309Z,2.60
2023-05-08T08:00:40.347Z,3.20
2023-05-08T08:03:42.217Z,3.30
2023-05-08T08:06:44.116Z,2.80
2023-05-08T08:09:46.423Z,3.10
2023-05-08T08:12:48.250Z,3.00
2023-05-08T08:15:51.367Z,3.00
2023-05-08T08:18:53.219Z,3.20
2023-05-08T08:21:55.025Z,3.40
2023-05-08T08:24:57.059Z,2.70
2023-05-08T08:27:59.518Z,3.00
2023-05-08T08:31:01.312Z,3.10
2023-05-08T08:34:03.750Z,2.50
2023-05-08T08:37:06.316Z,2.80
2023-05-08T08:40:08.524Z,3.00
2023-05-08T08:43:10.581Z,2.90
2023-05-08T08:46:14.692Z,2.70
2023-05-08T08:49:31.517Z,2.50
2023-05-08T08:52:46.957Z,2.50
2023-05-08T08:55:51.854Z,2.80
2023-05-08T08:58:58.567Z,2.80
2023-05-08T09:02:06.529Z,3.00
2023-05-08T09:05:09.344Z,2.50
2023-05-08T09:08:12.297Z,2.70
2023-05-08T09:11:14.421Z,2.90
2023-05-08T09:14:16.426Z,2.90
2023-05-08T09:17:18.425Z,3.10
2023-05-08T09:20:21.040Z,2.90
2023-05-08T09:23:23.425Z,3.20
2023-05-08T09:29:31.160Z,2.90
2023-05-08T09:39:25.450Z,2.80
2023-05-08T09:42:38.910Z,2.50
2023-05-08T09:45:42.846Z,2.20
2023-05-08T09:48:46.183Z,2.70
2023-05-08T09:51:56.092Z,2.30
2023-05-08T09:55:06.456Z,2.30
2023-05-08T09:58:10.038Z,2.50
2023-05-08T10:01:36.241Z,2.60
2023-05-08T10:04:39.757Z,2.00
2023-05-08T10:07:43.120Z,2.50
2023-05-08T10:10:49.215Z,2.30
2023-05-08T10:13:52.584Z,2.40
2023-05-08T10:16:58.152Z,2.60
2023-05-08T10:20:07.820Z,2.50
2023-05-08T10:23:17.318Z,2.30
2023-05-08T10:26:27.701Z,2.20
2023-05-08T10:29:42.160Z,2.50
2023-05-08T10:32:49.728Z,2.10
2023-05-08T10:35:53.542Z,2.20
2023-05-08T10:38:59.075Z,2.20
2023-05-08T10:42:03.169Z,2.10
2023-05-08T10:45:07.725Z,2.30
2023-05-08T10:48:26.831Z,2.40
2023-05-08T10:51:37.580Z,2.10
2023-05-08T10:55:20.580Z,1.90
2023-05-08T10:58:24.396Z,2.20
2023-05-08T11:01:28.599Z,2.20
2023-05-08T11:04:32.591Z,2.40
2023-05-08T11:07:58.161Z,2.30
2023-05-08T11:11:02.175Z,2.20
2023-05-08T11:14:08.686Z,2.10
2023-05-08T11:17:12.085Z,2.50
2023-05-08T11:20:15.747Z,2.30
2023-05-08T11:23:27.489Z,2.10
2023-05-08T11:26:43.216Z,1.90
2023-05-08T11:30:24.911Z,2.10
2023-05-08T11:33:33.192Z,2.70
2023-05-08T11:36:37.008Z,2.30
2023-05-08T11:39:40.568Z,2.20
2023-05-08T11:42:43.822Z,2.80
2023-05-08T11:45:47.362Z,2.50
2023-05-08T11:49:01.554Z,3.10
2023-05-08T11:52:06.468Z,2.40
2023-05-08T11:55:12.286Z,2.60
2023-05-08T11:58:16.624Z,2.40
2023-05-08T12:01:21.041Z,2.20
2023-05-08T12:04:24.391Z,1.90
2023-05-08T12:07:28.005Z,2.20
2023-05-08T12:10:31.665Z,2.40
2023-05-08T12:13:35.165Z,2.10
2023-05-08T12:16:40.668Z,3.10
2023-05-08T12:19:44.094Z,2.00
2023-05-08T12:22:52.559Z,1.90
2023-05-08T12:25:59.654Z,1.70
2023-05-08T12:29:05.476Z,1.70
2023-05-08T12:32:08.911Z,2.50
2023-05-08T12:35:14.616Z,2.10
2023-05-08T12:38:18.008Z,2.10
2023-05-08T12:41:24.686Z,2.10
2023-05-08T12:44:28.422Z,1.80
2023-05-08T12:47:31.871Z,1.80
2023-05-08T12:50:40.700Z,1.60
2023-05-08T12:53:46.495Z,1.90
2023-05-08T12:56:50.738Z,1.60
2023-05-08T13:00:04.996Z,1.70
2023-05-08T13:03:10.034Z,1.40
2023-05-08T13:06:21.529Z,2.30
2023-05-08T13:09:24.927Z,1.90
2023-05-08T13:12:28.333Z,1.40
2023-05-08T13:15:31.618Z,1.20
2023-05-08T13:18:37.947Z,1.60
2023-05-08T13:21:41.640Z,1.40
2023-05-08T13:24:45.263Z,1.40
2023-05-08T13:27:48.646Z,2.20
2023-05-08T13:30:51.941Z,1.50
2023-05-08T13:33:55.253Z,1.70
2023-05-08T13:36:58.854Z,1.80
2023-05-08T13:40:02.561Z,1.40
2023-05-08T13:43:05.968Z,1.70
2023-05-08T13:46:09.477Z,1.10
2023-05-08T13:49:13.046Z,2.00
2023-05-08T13:52:17.069Z,1.30
2023-05-08T13:55:22.306Z,1.40
2023-05-08T13:58:25.695Z,1.30
2023-05-08T14:01:29.042Z,1.40
2023-05-08T14:04:32.440Z,1.40
2023-05-08T14:07:36.325Z,1.30
2023-05-08T14:10:40.853Z,1.60
2023-05-08T14:13:44.234Z,1.20
2023-05-08T14:16:48.630Z,1.90
2023-05-08T14:19:51.986Z,1.60
2023-05-08T14:22:59.582Z,1.50
2023-05-08T14:26:03.510Z,1.80
2023-05-08T14:29:06.722Z,1.50
2023-05-08T14:32:11.175Z,1.40
2023-05-08T14:35:14.757Z,1.40
2023-05-08T14:38:18.317Z,1.10
2023-05-08T14:41:22.085Z,1.50
2023-05-08T14:44:25.303Z,1.40
2023-05-08T14:47:28.664Z,1.60
2023-05-08T14:50:31.923Z,1.50
2023-05-08T14:53:35.297Z,1.50
2023-05-08T14:56:47.274Z,1.50
2023-05-08T15:03:14.355Z,1.20
2023-05-08T15:06:17.622Z,1.60
2023-05-08T15:09:20.869Z,1.70
2023-05-08T15:12:24.124Z,1.60
2023-05-08T15:15:27.513Z,1.50
2023-05-08T15:18:30.787Z,1.50
2023-05-08T15:21:34.561Z,1.50
2023-05-08T15:24:37.845Z,1.30
2023-05-08T15:27:41.850Z,1.40
2023-05-08T15:30:48.476Z,1.20
2023-05-08T15:33:51.851Z,1.30
2023-05-08T15:36:55.060Z,1.80
2023-05-08T15:39:58.242Z,2.30
2023-05-08T15:43:01.730Z,1.90
2023-05-08T15:46:05.325Z,2.10
2023-05-08T15:49:08.613Z,1.80
2023-05-08T15:52:11.954Z,1.40
2023-05-08T15:55:15.500Z,1.40
2023-05-08T15:58:18.966Z,1.30
2023-05-08T16:01:22.192Z,1.80
2023-05-08T16:04:25.596Z,2.20
2023-05-08T16:07:29.029Z,1.30
2023-05-08T16:10:32.238Z,1.90
2023-05-08T16:13:35.567Z,1.70
2023-05-08T16:16:39.486Z,1.70
2023-05-08T16:19:42.907Z,2.00
2023-05-08T16:22:46.476Z,1.80
2023-05-08T16:25:49.856Z,1.60
2023-05-08T16:28:53.263Z,1.70
2023-05-08T16:31:56.668Z,1.30
2023-05-08T16:35:00.111Z,1.70
2023-05-08T16:38:05.023Z,1.70
2023-05-08T16:41:10.244Z,1.80
2023-05-08T16:44:13.635Z,1.90
2023-05-08T16:47:17.306Z,2.50
2023-05-08T16:50:20.884Z,2.70
2023-05-08T16:53:27.083Z,1.90
2023-05-08T16:56:30.243Z,1.60
2023-05-08T16:59:33.556Z,1.50
2023-05-08T17:02:37.018Z,1.50
2023-05-08T17:05:40.973Z,1.60
2023-05-08T17:08:43.998Z,1.60
2023-05-08T17:11:47.047Z,2.00
2023-05-08T17:14:50.012Z,1.70
2023-05-08T17:17:53.197Z,1.70
2023-05-08T17:20:56.164Z,2.10
2023-05-08T17:24:00.757Z,1.90
2023-05-08T17:27:07.735Z,1.60
2023-05-08T17:30:12.241Z,1.70
2023-05-08T17:33:15.596Z,1.60
2023-05-08T17:36:18.554Z,1.40
2023-05-08T17:39:22.023Z,1.60
2023-05-08T17:42:25.004Z,1.90
2023-05-08T17:45:28.227Z,2.00
2023-05-08T17:48:31.412Z,2.10
2023-05-08T17:51:34.531Z,2.30
2023-05-08T17:54:37.655Z,2.60
2023-05-08T17:57:40.717Z,2.30
2023-05-08T18:00:43.929Z,2.20
2023-05-08T18:03:49.951Z,2.10
2023-05-08T18:06:53.023Z,2.60
2023-05-08T18:09:56.296Z,2.90
2023-05-08T18:12:59.356Z,3.10
2023-05-08T18:16:02.518Z,2.90
2023-05-08T18:19:05.610Z,2.90
2023-05-08T18:22:08.640Z,3.60
2023-05-08T18:25:12.183Z,3.50
2023-05-08T18:28:15.180Z,3.70
2023-05-08T18:31:18.237Z,3.60
2023-05-08T18:34:21.256Z,3.60
2023-05-08T18:37:24.351Z,3.20
2023-05-08T18:40:27.345Z,3.60
2023-05-08T18:43:30.628Z,3.70
2023-05-08T18:46:33.658Z,4.00
2023-05-08T18:49:36.747Z,4.50
2023-05-08T18:52:40.745Z,3.90
2023-05-08T18:55:43.876Z,4.70
2023-05-08T18:58:47.628Z,4.90
2023-05-08T19:01:51.225Z,4.90
2023-05-08T19:04:54.538Z,5.00
2023-05-08T19:07:58.001Z,5.10
2023-05-08T19:11:01.015Z,4.90
2023-05-08T19:14:04.093Z,5.30
2023-05-08T19:17:07.175Z,5.80
2023-05-08T19:20:11.027Z,6.90
2023-05-08T19:23:14.074Z,6.70
2023-05-08T19:26:18.119Z,7.40
2023-05-08T19:29:21.100Z,7.30
2023-05-08T19:32:25.838Z,6.80
2023-05-08T19:35:29.157Z,8.00
2023-05-08T19:38:32.125Z,8.60
2023-05-08T19:41:35.572Z,7.30
2023-05-08T19:44:39.130Z,8.50
2023-05-08T19:47:42.640Z,8.60
2023-05-08T19:50:45.901Z,8.80
2023-05-08T19:53:48.922Z,8.20
2023-05-08T19:56:51.965Z,7.50
2023-05-08T19:59:56.043Z,7.80
2023-05-08T20:02:59.146Z,7.70
2023-05-08T20:06:02.276Z,8.10
2023-05-08T20:09:06.355Z,7.60
2023-05-08T20:12:09.436Z,7.10
2023-05-08T20:15:12.698Z,7.90
2023-05-08T20:18:16.128Z,8.40
2023-05-08T20:21:19.237Z,8.20
2023-05-08T20:24:22.279Z,7.20
2023-05-08T20:27:25.315Z,7.60
2023-05-08T20:30:28.439Z,8.80
2023-05-08T20:33:31.472Z,8.10
2023-05-08T20:36:34.611Z,9.00
2023-05-08T20:39:37.576Z,9.90
2023-05-08T20:42:41.449Z,9.20
2023-05-08T20:45:44.727Z,9.60
2023-05-08T20:48:47.830Z,10.90
2023-05-08T20:51:50.783Z,11.00
2023-05-08T20:54:53.809Z,11.90
2023-05-08T20:57:56.935Z,11.50
2023-05-08T21:01:00.024Z,10.80
2023-05-08T21:04:03.096Z,11.40
2023-05-08T21:07:06.270Z,11.30
2023-05-08T21:10:09.624Z,11.30
2023-05-08T21:13:12.651Z,11.90
2023-05-08T21:16:15.774Z,11.70
2023-05-08T21:19:18.783Z,11.50
2023-05-08T21:22:21.772Z,12.20
2023-05-08T21:25:24.901Z,11.40
2023-05-08T21:28:27.890Z,11.70
2023-05-08T21:31:37.014Z,11.40
2023-05-08T21:34:41.512Z,11.40
2023-05-08T21:37:44.541Z,10.90
2023-05-08T21:40:47.576Z,10.80
2023-05-08T21:43:50.727Z,10.20
2023-05-08T21:46:53.809Z,10.20
2023-05-08T21:49:57.425Z,9.70
2023-05-08T21:53:00.389Z,9.80
2023-05-08T21:56:03.512Z,10.10
2023-05-08T21:59:07.668Z,10.10
2023-05-08T22:02:11.229Z,9.30
2023-05-08T22:05:14.692Z,10.10
2023-05-08T22:08:18.277Z,9.20
2023-05-08T22:11:22.389Z,9.00
2023-05-08T22:14:25.578Z,9.40
2023-05-08T22:17:28.878Z,9.00
2023-05-08T22:20:32.183Z,10.20
2023-05-08T22:23:35.758Z,10.10
2023-05-08T22:26:38.978Z,9.30
2023-05-08T22:29:42.083Z,10.40
2023-05-08T22:32:54.428Z,8.60
2023-05-08T22:39:01.699Z,8.90
2023-05-08T22:42:05.409Z,9.60
2023-05-08T22:45:57.777Z,9.40
2023-05-08T22:49:11.551Z,9.60
2023-05-08T22:52:14.860Z,10.00
2023-05-08T22:55:18.183Z,9.10
2023-05-08T22:58:21.483Z,9.40
2023-05-08T23:01:24.877Z,8.80
2023-05-08T23:04:28.196Z,9.00
2023-05-08T23:07:31.499Z,9.70
2023-05-08T23:10:34.731Z,8.70
2023-05-08T23:13:38.019Z,8.90
2023-05-08T23:16:41.398Z,9.10
2023-05-08T23:19:45.691Z,8.80
2023-05-08T23:22:48.905Z,9.50
2023-05-08T23:25:52.291Z,8.40
2023-05-08T23:28:55.332Z,8.80
2023-05-08T23:31:58.391Z,8.70
2023-05-08T23:35:01.654Z,8.70
2023-05-08T23:38:04.708Z,8.40
2023-05-08T23:41:08.006Z,7.70
2023-05-08T23:44:11.033Z,7.80
2023-05-08T23:47:13.976Z,8.90
2023-05-08T23:50:17.244Z,8.00
2023-05-08T23:53:20.734Z,8.50
2023-05-08T23:56:23.852Z,8.90
2023-05-08T23:59:26.813Z,8.10
